Time;durP1;ratioP1;P1;durP2;ratioP2;P2;SDS_P1;SDS_P2;PMS_P1;PMS_P2;Temp;Humidity;BMP_temperature;BMP_pressure;BME280_temperature;BME280_humidity;BME280_pressure;Samples;Min_cycle;Max_cycle;Signal;HPM_P1;HPM_P2
2023/02/12 00:00:41;;;;;;;18.53;10.83;;;1.20;99.90;;;;;;4171055;28;20509;-68
2023/02/12 00:02:42;;;;;;;16.47;9.90;;;1.30;99.90;;;;;;4170824;28;20216;-68
2023/02/12 00:04:43;;;;;;;16.90;9.57;;;1.10;99.90;;;;;;4172998;28;20441;-68
2023/02/12 00:06:43;;;;;;;17.30;10.77;;;1.00;99.90;;;;;;4172086;28;20194;-68
2023/02/12 00:08:48;;;;;;;22.33;11.53;;;0.90;99.90;;;;;;4178743;28;20252;-68
2023/02/12 00:10:49;;;;;;;20.37;10.23;;;0.80;99.90;;;;;;4171932;28;20182;-68
2023/02/12 00:12:53;;;;;;;22.23;11.30;;;0.80;99.90;;;;;;4170581;28;20545;-68
2023/02/12 00:14:53;;;;;;;20.50;10.43;;;0.70;99.90;;;;;;4172113;28;20196;-68
2023/02/12 00:16:54;;;;;;;19.30;10.83;;;0.60;99.90;;;;;;4175483;28;20853;-68
2023/02/12 00:18:56;;;;;;;20.17;10.63;;;0.50;99.90;;;;;;4171716;28;20256;-67
2023/02/12 00:21:00;;;;;;;21.77;10.67;;;0.40;99.90;;;;;;4170370;28;20192;-68
2023/02/12 00:23:00;;;;;;;19.93;10.73;;;0.40;99.90;;;;;;4171430;28;20430;-68
2023/02/12 00:25:01;;;;;;;23.03;10.47;;;0.50;99.90;;;;;;4172343;28;20478;-68
2023/02/12 00:27:02;;;;;;;17.93;10.00;;;0.50;99.90;;;;;;4173939;28;20673;-68
2023/02/12 00:29:02;;;;;;;21.77;11.50;;;0.60;99.90;;;;;;4173337;28;20205;-68
2023/02/12 00:31:13;;;;;;;17.67;9.20;;;0.70;99.90;;;;;;4172156;28;21071;-67
2023/02/12 00:33:14;;;;;;;20.67;11.23;;;0.70;99.90;;;;;;4172722;28;20190;-68
2023/02/12 00:35:15;;;;;;;17.90;9.00;;;0.80;99.90;;;;;;4173091;28;20441;-68
2023/02/12 00:37:15;;;;;;;16.07;9.20;;;0.90;99.90;;;;;;4171951;28;20236;-68
2023/02/12 00:39:16;;;;;;;18.17;8.80;;;0.90;99.90;;;;;;4153476;28;20485;-68
2023/02/12 00:41:18;;;;;;;19.33;10.23;;;1.00;99.90;;;;;;4170743;28;20278;-68
2023/02/12 00:43:18;;;;;;;16.67;9.23;;;1.10;99.90;;;;;;4173198;28;20220;-68
2023/02/12 00:45:19;;;;;;;16.93;9.00;;;1.20;99.90;;;;;;4172997;28;20469;-70
2023/02/12 00:47:20;;;;;;;20.37;10.27;;;1.30;99.90;;;;;;4171764;28;20201;-67
2023/02/12 00:49:21;;;;;;;19.33;10.43;;;1.30;99.00;;;;;;4169454;28;20205;-68
2023/02/12 00:51:21;;;;;;;17.93;10.00;;;1.20;99.90;;;;;;4170557;28;20218;-68
2023/02/12 00:53:22;;;;;;;17.03;9.67;;;1.30;99.90;;;;;;4172719;28;20192;-69
2023/02/12 00:55:23;;;;;;;18.60;10.03;;;1.50;99.60;;;;;;4172619;28;20239;-70
2023/02/12 00:57:23;;;;;;;19.87;10.33;;;1.50;99.50;;;;;;4170063;28;20231;-68
2023/02/12 00:59:25;;;;;;;19.43;10.90;;;1.60;99.10;;;;;;4170791;28;20263;-68
2023/02/12 01:01:26;;;;;;;17.67;9.93;;;1.60;99.30;;;;;;4172131;28;20577;-68
2023/02/12 01:03:27;;;;;;;21.97;11.27;;;1.70;99.10;;;;;;4172707;28;20427;-69
2023/02/12 01:05:27;;;;;;;20.23;10.10;;;1.80;99.10;;;;;;4172528;28;20214;-68
2023/02/12 01:07:28;;;;;;;21.60;10.20;;;1.80;99.20;;;;;;4171222;28;20225;-68
2023/02/12 01:09:29;;;;;;;20.90;10.30;;;1.90;98.50;;;;;;4170353;28;20216;-68
2023/02/12 01:11:29;;;;;;;19.53;10.13;;;1.80;98.20;;;;;;4170327;28;20199;-68
2023/02/12 01:13:31;;;;;;;20.53;11.33;;;1.70;99.20;;;;;;4172588;28;20196;-68
2023/02/12 01:15:32;;;;;;;17.67;10.27;;;1.60;99.70;;;;;;4171153;28;20193;-67
2023/02/12 01:17:33;;;;;;;21.57;11.60;;;1.60;99.90;;;;;;4169258;28;20471;-67
2023/02/12 01:19:34;;;;;;;19.77;10.47;;;1.60;99.90;;;;;;4169317;28;20267;-68
2023/02/12 01:21:34;;;;;;;23.37;10.37;;;1.80;99.90;;;;;;4171968;28;20189;-68
2023/02/12 01:23:35;;;;;;;19.77;10.67;;;1.80;99.70;;;;;;4170619;28;20623;-68
2023/02/12 01:25:38;;;;;;;18.40;9.87;;;1.80;99.10;;;;;;4172379;28;20196;-68
2023/02/12 01:27:39;;;;;;;18.10;10.63;;;1.80;98.60;;;;;;4169182;28;20631;-68
2023/02/12 01:29:43;;;;;;;20.30;10.87;;;1.80;98.70;;;;;;4169394;28;20950;-68
2023/02/12 01:31:44;;;;;;;21.77;10.67;;;1.80;98.80;;;;;;4171027;28;20498;-69
2023/02/12 01:33:50;;;;;;;26.63;12.23;;;1.90;98.60;;;;;;4170834;28;20437;-68
2023/02/12 01:35:51;;;;;;;26.20;12.10;;;1.80;98.70;;;;;;4156835;28;20246;-69
2023/02/12 01:37:52;;;;;;;29.07;13.30;;;1.80;99.20;;;;;;4168417;28;20479;-68
2023/02/12 01:39:52;;;;;;;25.50;13.37;;;1.80;99.10;;;;;;4170368;28;20197;-67
2023/02/12 01:41:53;;;;;;;30.07;13.43;;;1.90;98.80;;;;;;4172047;28;20208;-69
2023/02/12 01:44:16;;;;;;;27.50;13.90;;;1.70;99.60;;;;;;4170978;28;20239;-68
2023/02/12 01:46:17;;;;;;;29.57;14.33;;;1.50;99.90;;;;;;4170243;28;20201;-69
2023/02/12 01:48:21;;;;;;;24.63;12.50;;;1.50;99.90;;;;;;4171401;28;20891;-68
2023/02/12 01:50:22;;;;;;;23.60;12.63;;;1.60;99.90;;;;;;4170203;28;20228;-69
2023/02/12 01:52:28;;;;;;;29.93;14.23;;;1.80;99.90;;;;;;4170906;28;20434;-69
2023/02/12 01:54:29;;;;;;;24.87;13.10;;;1.80;99.40;;;;;;4170022;28;20289;-69
2023/02/12 01:56:31;;;;;;;24.57;13.67;;;2.00;99.20;;;;;;4171909;28;20798;-69
2023/02/12 01:58:38;;;;;;;24.70;13.27;;;1.90;98.60;;;;;;4177265;28;20218;-69
2023/02/12 02:00:39;;;;;;;21.13;11.23;;;1.90;98.70;;;;;;4170826;28;20427;-68
2023/02/12 02:02:48;;;;;;;24.27;11.80;;;1.90;98.70;;;;;;4170577;28;20465;-68
2023/02/12 02:04:58;;;;;;;24.33;11.90;;;1.80;98.30;;;;;;4170704;28;20203;-68
2023/02/12 02:07:02;;;;;;;24.43;12.07;;;1.60;99.40;;;;;;4170933;28;20463;-68
2023/02/12 02:09:03;;;;;;;21.37;11.87;;;1.60;99.90;;;;;;4170133;28;20457;-68
2023/02/12 02:14:31;;;;;;;22.37;11.70;;;1.70;99.90;;;;;;4170526;28;20486;-68
2023/02/12 02:15:50;;;;;;;24.57;12.90;;;1.90;99.90;;;;;;4174750;28;20514;-68
2023/02/12 02:18:10;;;;;;;26.07;14.23;;;1.90;99.90;;;;;;4153567;28;20479;-68
2023/02/12 02:20:19;;;;;;;29.97;13.17;;;1.80;99.90;;;;;;4161418;28;20499;-67
2023/02/12 02:23:02;;;;;;;29.37;13.63;;;1.90;99.90;;;;;;4170812;28;20435;-68
2023/02/12 02:25:45;;;;;;;24.50;12.43;;;1.90;99.90;;;;;;4170920;28;20517;-68
2023/02/12 02:28:09;;;;;;;27.63;14.00;;;2.00;99.90;;;;;;4172612;28;20430;-69
2023/02/12 02:30:47;;;;;;;24.07;12.70;;;2.00;99.90;;;;;;4171025;28;20425;-67
2023/02/12 02:33:16;;;;;;;24.00;12.87;;;2.00;99.90;;;;;;4156713;28;20463;-67
2023/02/12 02:35:27;;;;;;;23.73;12.00;;;2.10;99.90;;;;;;4162401;28;20450;-68
2023/02/12 02:38:03;;;;;;;24.33;11.63;;;2.30;99.90;;;;;;4173918;28;20477;-68
2023/02/12 02:40:22;;;;;;;28.37;13.10;;;2.20;99.90;;;;;;4173667;28;20458;-68
2023/02/12 02:42:28;;;;;;;28.70;13.43;;;2.10;99.90;;;;;;4172674;28;20422;-68
2023/02/12 02:45:11;;;;;;;25.70;12.27;;;2.20;99.90;;;;;;4172334;28;20436;-68
2023/02/12 02:47:15;;;;;;;23.53;11.57;;;2.40;99.90;;;;;;4165053;28;20459;-68
2023/02/12 02:49:24;;;;;;;23.00;11.50;;;2.40;99.90;;;;;;4172788;28;20520;-68
2023/02/12 02:51:34;;;;;;;25.90;12.40;;;2.40;99.90;;;;;;4157733;28;20917;-68
2023/02/12 02:53:50;;;;;;;24.40;12.27;;;2.40;99.90;;;;;;4180998;28;20475;-68
2023/02/12 02:55:56;;;;;;;24.37;12.53;;;2.40;99.90;;;;;;4174215;28;20846;-68
2023/02/12 02:58:11;;;;;;;28.17;13.10;;;2.40;99.90;;;;;;4172677;28;20476;-68
2023/02/12 03:00:21;;;;;;;25.40;13.13;;;2.50;99.90;;;;;;4171999;28;20518;-68
2023/02/12 03:02:31;;;;;;;29.47;13.30;;;2.50;99.90;;;;;;4171931;28;20464;-68
2023/02/12 03:04:47;;;;;;;26.60;12.73;;;2.50;99.90;;;;;;4172791;28;20426;-68
2023/02/12 03:06:59;;;;;;;25.10;12.43;;;2.50;99.90;;;;;;4173954;28;20438;-67
2023/02/12 03:09:14;;;;;;;26.40;11.27;;;2.60;99.90;;;;;;4171021;28;20526;-68
2023/02/12 03:11:23;;;;;;;24.60;11.17;;;2.60;99.90;;;;;;4174635;28;20430;-68
2023/02/12 03:13:41;;;;;;;19.20;10.00;;;2.50;99.90;;;;;;4174155;28;20424;-68
2023/02/12 03:15:50;;;;;;;22.10;11.07;;;2.60;99.90;;;;;;4173910;28;20908;-68
2023/02/12 03:17:51;;;;;;;21.03;10.80;;;2.60;99.90;;;;;;4170858;28;20597;-68
2023/02/12 03:19:59;;;;;;;22.80;10.33;;;2.70;99.90;;;;;;4171582;28;20948;-69
2023/02/12 03:22:06;;;;;;;16.50;8.83;;;2.70;99.90;;;;;;4171563;28;20951;-69
2023/02/12 03:24:25;;;;;;;15.57;8.30;;;2.80;99.90;;;;;;4171501;28;21213;-69
2023/02/12 03:26:41;;;;;;;15.97;8.00;;;2.90;99.90;;;;;;4172481;28;20443;-69
2023/02/12 03:28:42;;;;;;;20.03;7.63;;;2.90;99.90;;;;;;4154218;28;20989;-70
2023/02/12 03:31:23;;;;;;;16.17;7.60;;;2.90;99.90;;;;;;4172968;28;20438;-68
2023/02/12 03:33:37;;;;;;;14.60;7.33;;;2.80;99.90;;;;;;4173973;28;20229;-69
2023/02/12 03:36:06;;;;;;;15.87;6.80;;;2.80;99.90;;;;;;4173410;28;20450;-69
2023/02/12 03:38:30;;;;;;;13.43;6.47;;;2.80;99.90;;;;;;4171189;28;20489;-68
2023/02/12 03:40:45;;;;;;;13.67;6.37;;;2.90;99.90;;;;;;4174620;28;20433;-68
2023/02/12 03:43:29;;;;;;;9.30;5.87;;;2.70;99.90;;;;;;4171137;28;20522;-70
2023/02/12 03:45:54;;;;;;;13.03;6.43;;;2.70;99.90;;;;;;4161477;28;20455;-70
2023/02/12 03:48:20;;;;;;;16.27;7.23;;;2.70;99.90;;;;;;4170184;28;21344;-69
2023/02/12 03:50:36;;;;;;;17.00;7.10;;;2.80;99.90;;;;;;4177328;28;20440;-70
2023/02/12 03:52:37;;;;;;;20.23;8.80;;;2.70;99.90;;;;;;4172223;28;20992;-69
2023/02/12 03:54:37;;;;;;;16.13;7.03;;;2.70;99.90;;;;;;4173843;28;20492;-68
2023/02/12 03:57:02;;;;;;;18.23;8.20;;;2.80;99.90;;;;;;4172118;28;20543;-69
2023/02/12 03:59:05;;;;;;;16.53;7.90;;;2.70;99.90;;;;;;4171731;28;20240;-69
2023/02/12 04:01:06;;;;;;;16.07;8.53;;;2.80;99.90;;;;;;4172456;28;20425;-70
2023/02/12 04:03:07;;;;;;;15.20;7.63;;;2.90;99.90;;;;;;4171294;28;20425;-69
2023/02/12 04:05:16;;;;;;;16.40;7.97;;;3.00;99.90;;;;;;4175357;28;20446;-70
2023/02/12 04:07:17;;;;;;;19.10;8.60;;;3.10;99.90;;;;;;4174370;28;20444;-68
2023/02/12 04:09:18;;;;;;;20.33;7.97;;;3.20;99.90;;;;;;4172667;28;20536;-69
2023/02/12 04:11:50;;;;;;;12.10;7.07;;;3.10;99.90;;;;;;4171696;28;20219;-71
2023/02/12 04:14:17;;;;;;;20.33;7.57;;;3.10;99.90;;;;;;4173479;28;20476;-69
2023/02/12 04:16:44;;;;;;;11.50;6.07;;;3.20;99.90;;;;;;4161961;28;20486;-68
2023/02/12 04:18:50;;;;;;;15.70;7.30;;;3.10;99.90;;;;;;4171725;28;20456;-69
2023/02/12 04:21:09;;;;;;;16.57;7.13;;;3.10;99.90;;;;;;4172118;28;20986;-69
2023/02/12 04:23:48;;;;;;;12.83;7.20;;;3.20;99.90;;;;;;4174172;28;20458;-68
2023/02/12 04:26:25;;;;;;;14.47;7.40;;;3.10;99.90;;;;;;4174413;28;20514;-69
2023/02/12 04:28:42;;;;;;;17.80;7.73;;;3.10;99.90;;;;;;4170507;28;20447;-69
2023/02/12 04:31:22;;;;;;;12.53;5.97;;;3.20;99.90;;;;;;4172859;28;20554;-68
2023/02/12 04:33:28;;;;;;;11.43;5.63;;;3.20;99.90;;;;;;4171492;28;20422;-68
2023/02/12 04:35:35;;;;;;;12.27;6.63;;;3.10;99.90;;;;;;4172937;28;20443;-69
2023/02/12 04:37:45;;;;;;;13.93;6.20;;;3.10;99.90;;;;;;4170249;28;20536;-68
2023/02/12 04:39:48;;;;;;;21.90;7.33;;;3.10;99.90;;;;;;4171952;28;20473;-69
2023/02/12 04:41:50;;;;;;;15.87;6.70;;;3.10;99.90;;;;;;4172005;28;20442;-68
2023/02/12 04:43:50;;;;;;;11.90;6.00;;;3.10;99.90;;;;;;4170828;28;21009;-68
2023/02/12 04:45:51;;;;;;;13.67;5.87;;;2.80;99.90;;;;;;4171531;28;20438;-69
2023/02/12 04:47:52;;;;;;;18.20;7.47;;;2.80;99.90;;;;;;4170842;28;20203;-68
2023/02/12 04:49:53;;;;;;;18.73;7.90;;;2.90;99.90;;;;;;4171625;28;20196;-68
2023/02/12 04:51:53;;;;;;;14.37;7.10;;;3.00;99.90;;;;;;4172574;28;20474;-68
2023/02/12 04:53:54;;;;;;;15.87;7.27;;;2.90;99.90;;;;;;4171633;28;20203;-69
2023/02/12 04:55:55;;;;;;;19.13;7.73;;;3.00;99.90;;;;;;4152369;28;20205;-68
2023/02/12 04:57:55;;;;;;;14.70;7.87;;;3.00;99.90;;;;;;4169712;28;20676;-69
2023/02/12 04:59:56;;;;;;;16.90;8.07;;;3.00;99.90;;;;;;4171195;28;20573;-69
2023/02/12 05:01:57;;;;;;;23.03;7.77;;;3.10;99.90;;;;;;4170019;28;20235;-68
2023/02/12 05:03:57;;;;;;;43.77;7.53;;;3.10;99.90;;;;;;4170845;28;20219;-69
2023/02/12 05:06:07;;;;;;;10.80;5.57;;;3.00;99.90;;;;;;4171524;28;20226;-68
2023/02/12 05:08:07;;;;;;;13.17;6.33;;;2.80;99.90;;;;;;4169484;28;20258;-69
2023/02/12 05:10:09;;;;;;;13.83;6.33;;;2.80;99.90;;;;;;4171077;28;20442;-69
2023/02/12 05:12:09;;;;;;;13.47;6.00;;;2.70;99.90;;;;;;4170057;28;20578;-68
2023/02/12 05:14:11;;;;;;;18.87;7.07;;;2.70;99.90;;;;;;4172496;28;20457;-69
2023/02/12 05:16:11;;;;;;;13.23;6.03;;;2.70;99.90;;;;;;4171266;28;20184;-68
2023/02/12 05:18:12;;;;;;;13.40;5.97;;;2.70;99.90;;;;;;4171743;28;20569;-68
2023/02/12 05:20:13;;;;;;;20.40;7.33;;;2.90;99.90;;;;;;4170893;28;20217;-68
2023/02/12 05:22:14;;;;;;;9.03;4.93;;;3.00;99.90;;;;;;4170381;28;20203;-68
2023/02/12 05:24:14;;;;;;;14.23;6.20;;;3.00;99.90;;;;;;4170954;28;20858;-68
2023/02/12 05:26:19;;;;;;;14.13;5.33;;;3.10;99.90;;;;;;4171063;28;20199;-68
2023/02/12 05:28:19;;;;;;;15.57;6.20;;;3.10;99.90;;;;;;4169998;28;20705;-69
2023/02/12 05:30:20;;;;;;;16.73;6.43;;;3.00;99.90;;;;;;4170960;28;20431;-68
2023/02/12 05:32:21;;;;;;;14.20;5.77;;;3.00;99.90;;;;;;4172177;28;20201;-68
2023/02/12 05:34:22;;;;;;;11.40;5.33;;;3.10;99.90;;;;;;4172078;28;20191;-68
2023/02/12 05:36:24;;;;;;;10.87;4.97;;;3.10;99.90;;;;;;4170379;28;20476;-69
2023/02/12 05:38:24;;;;;;;10.73;5.23;;;3.00;99.90;;;;;;4168608;28;20222;-68
2023/02/12 05:40:25;;;;;;;13.87;6.30;;;3.10;99.90;;;;;;4170341;28;20433;-68
2023/02/12 05:42:28;;;;;;;15.70;6.00;;;3.10;99.90;;;;;;4171694;28;20204;-69
2023/02/12 05:44:28;;;;;;;10.57;4.03;;;3.20;99.90;;;;;;4171857;28;20282;-67
2023/02/12 05:46:30;;;;;;;13.20;4.40;;;3.20;99.90;;;;;;4171340;28;20445;-67
2023/02/12 05:48:32;;;;;;;9.70;4.10;;;3.20;99.90;;;;;;4153403;28;20263;-68
2023/02/12 05:50:32;;;;;;;13.23;5.20;;;3.20;99.90;;;;;;4175485;28;20442;-69
2023/02/12 05:52:33;;;;;;;11.53;3.73;;;3.10;99.90;;;;;;4173177;28;20975;-67
2023/02/12 05:54:34;;;;;;;11.67;3.97;;;3.10;99.90;;;;;;4170262;28;20223;-68
2023/02/12 05:56:41;;;;;;;6.07;3.27;;;3.10;99.90;;;;;;4170465;28;20195;-67
2023/02/12 05:58:46;;;;;;;8.03;4.43;;;3.10;99.90;;;;;;4169164;28;20308;-67
2023/02/12 06:00:46;;;;;;;10.00;3.93;;;3.10;99.90;;;;;;4168900;28;20500;-68
2023/02/12 06:02:47;;;;;;;7.43;3.00;;;3.20;99.90;;;;;;4168744;28;20436;-67
2023/02/12 06:04:48;;;;;;;4.17;2.30;;;3.10;99.90;;;;;;4169659;28;20204;-67
2023/02/12 06:06:52;;;;;;;7.43;4.20;;;2.90;99.90;;;;;;4170098;28;20196;-68
2023/02/12 06:08:55;;;;;;;8.67;3.13;;;2.80;99.90;;;;;;4168704;28;20229;-68
2023/02/12 06:11:01;;;;;;;6.97;3.00;;;2.80;99.90;;;;;;4171665;28;20446;-68
2023/02/12 06:13:01;;;;;;;5.77;2.50;;;3.00;99.90;;;;;;4156069;28;20477;-68
2023/02/12 06:15:02;;;;;;;7.07;3.63;;;3.10;99.90;;;;;;4174623;28;20453;-68
2023/02/12 06:17:03;;;;;;;6.43;2.97;;;3.20;99.90;;;;;;4174866;28;20366;-67
2023/02/12 06:19:05;;;;;;;11.00;3.23;;;3.10;99.90;;;;;;4172492;28;20453;-68
2023/02/12 06:21:06;;;;;;;6.33;2.77;;;3.20;99.90;;;;;;4176057;28;20211;-67
2023/02/12 06:23:06;;;;;;;7.90;3.40;;;3.00;99.90;;;;;;4168525;28;20699;-67
2023/02/12 06:25:07;;;;;;;10.07;3.87;;;3.10;99.90;;;;;;4171800;28;20180;-68
2023/02/12 06:27:08;;;;;;;5.33;2.80;;;3.00;99.90;;;;;;4174417;28;20191;-67
2023/02/12 06:29:09;;;;;;;9.53;3.27;;;3.10;99.90;;;;;;4154979;28;20349;-68
2023/02/12 06:31:28;;;;;;;8.13;3.10;;;3.00;99.90;;;;;;4171782;28;20647;-68
2023/02/12 06:33:29;;;;;;;15.87;3.80;;;3.10;99.90;;;;;;4171799;28;20483;-68
2023/02/12 06:35:30;;;;;;;15.87;4.40;;;3.10;99.90;;;;;;4172858;28;20520;-68
2023/02/12 06:37:31;;;;;;;10.37;3.27;;;2.90;99.90;;;;;;4174403;28;20515;-68
2023/02/12 06:39:32;;;;;;;11.13;3.20;;;2.80;99.90;;;;;;4172260;28;20207;-67
2023/02/12 06:41:33;;;;;;;5.80;2.67;;;2.90;99.90;;;;;;4172888;28;20458;-68
2023/02/12 06:43:34;;;;;;;8.27;3.70;;;2.90;99.90;;;;;;4171513;28;20203;-68
2023/02/12 06:45:34;;;;;;;6.80;3.13;;;3.00;99.90;;;;;;4174939;28;20812;-67
2023/02/12 06:47:35;;;;;;;7.50;3.50;;;3.10;99.90;;;;;;4172191;28;20301;-67
2023/02/12 06:49:36;;;;;;;12.73;3.90;;;3.20;99.90;;;;;;4171558;28;20624;-67
2023/02/12 06:51:39;;;;;;;7.30;3.20;;;3.30;99.90;;;;;;4174019;28;20192;-68
2023/02/12 06:53:40;;;;;;;17.37;4.00;;;3.30;99.90;;;;;;4156494;28;20691;-67
2023/02/12 06:55:40;;;;;;;10.00;4.63;;;3.00;99.90;;;;;;4171207;28;20442;-68
2023/02/12 06:57:41;;;;;;;16.27;4.73;;;3.00;99.90;;;;;;4170618;28;20470;-67
2023/02/12 06:59:42;;;;;;;7.57;4.20;;;3.00;99.90;;;;;;4171737;28;20211;-68
2023/02/12 07:01:43;;;;;;;18.80;4.83;;;3.10;99.90;;;;;;4174006;28;21000;-68
2023/02/12 07:03:52;;;;;;;10.63;4.53;;;3.10;99.90;;;;;;4172514;28;20584;-68
2023/02/12 07:05:53;;;;;;;11.30;3.67;;;3.10;99.90;;;;;;4173747;28;20186;-68
2023/02/12 07:07:53;;;;;;;9.00;3.87;;;3.10;99.90;;;;;;4171296;28;20437;-68
2023/02/12 07:09:54;;;;;;;8.13;3.47;;;3.20;99.90;;;;;;4154597;28;20196;-68
2023/02/12 07:11:57;;;;;;;7.60;3.50;;;3.30;99.90;;;;;;4172574;28;20276;-68
2023/02/12 07:13:59;;;;;;;8.50;3.23;;;3.40;99.90;;;;;;4171156;28;20232;-68
2023/02/12 07:16:12;;;;;;;66.77;7.27;;;3.40;99.90;;;;;;4172239;28;20474;-68
2023/02/12 07:18:13;;;;;;;24.40;5.80;;;3.30;99.90;;;;;;4171437;28;20473;-69
2023/02/12 07:20:14;;;;;;;10.90;5.93;;;3.10;99.90;;;;;;4172465;28;21019;-68
2023/02/12 07:22:14;;;;;;;12.30;4.40;;;3.10;99.90;;;;;;4172808;28;20278;-68
2023/02/12 07:24:17;;;;;;;11.47;3.80;;;3.20;99.90;;;;;;4174157;28;20243;-68
2023/02/12 07:26:19;;;;;;;10.53;3.97;;;3.30;99.90;;;;;;4171797;28;20196;-68
2023/02/12 07:28:20;;;;;;;14.33;4.10;;;3.20;99.90;;;;;;4170111;28;20553;-67
2023/02/12 07:30:21;;;;;;;12.60;4.13;;;3.30;99.90;;;;;;4171377;28;20976;-68
2023/02/12 07:32:21;;;;;;;17.97;4.67;;;3.40;99.90;;;;;;4172275;28;20586;-68
2023/02/12 07:34:22;;;;;;;14.17;3.57;;;3.40;99.90;;;;;;4172259;28;20188;-68
2023/02/12 07:36:25;;;;;;;8.67;3.40;;;3.40;99.90;;;;;;4170864;28;20200;-68
2023/02/12 07:38:26;;;;;;;9.53;3.07;;;3.40;99.90;;;;;;4171385;28;20635;-68
2023/02/12 07:40:26;;;;;;;7.50;3.23;;;3.40;99.90;;;;;;4171411;28;20478;-68
2023/02/12 07:42:28;;;;;;;8.50;3.00;;;3.50;99.90;;;;;;4172072;28;20666;-68
2023/02/12 07:44:30;;;;;;;11.53;3.40;;;3.50;99.90;;;;;;4173038;28;20217;-68
2023/02/12 07:46:38;;;;;;;21.33;4.73;;;3.40;99.90;;;;;;4171714;28;20535;-68
2023/02/12 07:48:39;;;;;;;8.53;3.20;;;3.30;99.90;;;;;;4171566;28;20472;-68
2023/02/12 07:50:39;;;;;;;7.53;3.07;;;3.40;99.90;;;;;;4172045;28;20516;-68
2023/02/12 07:52:40;;;;;;;18.50;3.53;;;3.50;99.90;;;;;;4173232;28;20441;-68
2023/02/12 07:54:41;;;;;;;12.43;2.97;;;3.50;99.90;;;;;;4170273;28;20689;-67
2023/02/12 07:56:45;;;;;;;27.87;5.20;;;3.50;99.90;;;;;;4173211;28;20282;-68
2023/02/12 07:58:49;;;;;;;9.93;4.63;;;3.50;99.90;;;;;;4170301;28;20229;-68
2023/02/12 08:00:51;;;;;;;41.03;5.07;;;3.60;99.90;;;;;;4170336;28;20463;-68
2023/02/12 08:02:53;;;;;;;25.47;4.53;;;3.60;99.90;;;;;;4171055;28;20574;-68
2023/02/12 08:04:57;;;;;;;13.80;4.60;;;3.60;99.90;;;;;;4171769;28;20439;-68
2023/02/12 08:06:58;;;;;;;41.03;7.20;;;3.70;99.90;;;;;;4170884;28;20434;-69
2023/02/12 08:09:02;;;;;;;19.60;3.67;;;3.70;99.90;;;;;;4170391;28;20576;-69
2023/02/12 08:11:07;;;;;;;16.07;3.10;;;3.70;99.90;;;;;;4170181;28;20189;-69
2023/02/12 08:13:07;;;;;;;11.73;3.03;;;3.70;99.90;;;;;;4171657;28;20832;-67
2023/02/12 08:15:09;;;;;;;20.33;3.70;;;3.80;99.90;;;;;;4172330;28;20445;-68
2023/02/12 08:17:10;;;;;;;15.83;4.07;;;3.70;99.90;;;;;;4171345;28;20728;-68
2023/02/12 08:19:11;;;;;;;16.17;3.67;;;3.80;99.90;;;;;;4158261;28;20495;-68
2023/02/12 08:21:18;;;;;;;18.30;4.90;;;3.90;99.90;;;;;;4174918;28;20541;-68
2023/02/12 08:23:19;;;;;;;8.83;3.20;;;4.00;99.90;;;;;;4169726;28;20434;-68
2023/02/12 08:25:19;;;;;;;10.37;2.90;;;4.10;99.90;;;;;;4162422;28;20507;-68
2023/02/12 08:27:20;;;;;;;11.93;3.20;;;4.20;99.90;;;;;;4172448;28;20212;-69
2023/02/12 08:29:28;;;;;;;19.67;4.23;;;4.30;99.90;;;;;;4170696;28;20212;-69
2023/02/12 08:31:35;;;;;;;10.53;3.87;;;4.30;99.90;;;;;;4171375;28;20283;-68
2023/02/12 08:33:36;;;;;;;8.80;2.80;;;4.40;99.90;;;;;;4170029;28;20433;-68
2023/02/12 08:35:36;;;;;;;12.60;3.50;;;4.40;99.90;;;;;;4169906;28;20439;-69
2023/02/12 08:37:37;;;;;;;19.83;3.97;;;4.40;99.90;;;;;;4174536;28;20317;-68
2023/02/12 08:39:38;;;;;;;22.03;2.90;;;4.50;99.90;;;;;;4171956;28;20224;-68
2023/02/12 08:41:41;;;;;;;52.63;5.70;;;4.40;99.90;;;;;;4171149;28;20662;-68
2023/02/12 08:43:42;;;;;;;9.03;2.97;;;4.50;99.90;;;;;;4174979;28;20184;-69
2023/02/12 08:45:43;;;;;;;20.43;3.23;;;4.60;99.90;;;;;;4169101;28;20442;-68
2023/02/12 08:47:46;;;;;;;9.07;3.37;;;4.70;99.90;;;;;;4169395;28;20873;-68
2023/02/12 08:49:47;;;;;;;4.60;2.80;;;4.50;99.90;;;;;;4171462;28;20200;-71
2023/02/12 08:51:51;;;;;;;10.07;3.10;;;4.70;99.90;;;;;;4170201;28;20439;-67
2023/02/12 08:53:56;;;;;;;21.90;3.60;;;4.60;99.90;;;;;;4171009;28;20228;-68
2023/02/12 08:55:56;;;;;;;7.27;3.73;;;4.60;99.90;;;;;;4169878;28;20835;-68
2023/02/12 08:57:57;;;;;;;5.07;2.40;;;4.50;99.90;;;;;;4168782;28;20513;-67
2023/02/12 08:59:58;;;;;;;76.00;6.27;;;4.60;99.90;;;;;;4170671;28;20189;-68
2023/02/12 09:01:59;;;;;;;6.03;2.67;;;4.70;99.90;;;;;;4172162;28;20184;-68
2023/02/12 09:04:00;;;;;;;10.37;3.27;;;4.30;99.90;;;;;;4172077;28;20278;-68
2023/02/12 09:06:03;;;;;;;15.03;3.60;;;4.50;99.90;;;;;;4169713;28;20608;-71
2023/02/12 09:08:04;;;;;;;5.97;2.90;;;4.80;99.90;;;;;;4168692;28;20442;-69
2023/02/12 09:10:05;;;;;;;5.07;2.67;;;4.70;99.90;;;;;;4169643;28;21062;-69
2023/02/12 09:12:06;;;;;;;5.63;2.33;;;4.80;99.90;;;;;;4170473;28;20243;-68
2023/02/12 09:14:13;;;;;;;12.97;3.47;;;5.00;99.90;;;;;;4170693;28;20932;-65
2023/02/12 09:16:13;;;;;;;34.60;4.00;;;5.00;99.90;;;;;;4166217;28;20207;-67
2023/02/12 09:18:14;;;;;;;5.33;2.40;;;5.00;99.90;;;;;;4169497;28;21158;-68
2023/02/12 09:20:15;;;;;;;6.30;2.47;;;4.90;99.90;;;;;;4170546;28;20196;-69
2023/02/12 09:22:16;;;;;;;11.53;3.20;;;4.70;99.90;;;;;;4170412;28;20470;-71
2023/02/12 09:24:16;;;;;;;10.97;3.40;;;4.70;99.90;;;;;;4169700;28;20677;-70
2023/02/12 09:26:21;;;;;;;8.63;3.00;;;4.60;99.90;;;;;;4168898;28;20600;-66
2023/02/12 09:28:22;;;;;;;10.83;3.27;;;4.50;99.90;;;;;;4168523;28;20685;-67
2023/02/12 09:30:22;;;;;;;7.57;3.73;;;4.70;99.90;;;;;;4170394;28;20463;-69
2023/02/12 09:32:23;;;;;;;9.83;3.20;;;5.00;99.90;;;;;;4170316;28;20203;-69
2023/02/12 09:34:24;;;;;;;5.37;2.83;;;5.20;99.90;;;;;;4170528;28;20257;-69
2023/02/12 09:36:25;;;;;;;19.93;2.70;;;5.20;99.90;;;;;;4170346;28;20188;-69
2023/02/12 09:38:26;;;;;;;7.53;5.70;;;5.20;99.90;;;;;;4168647;28;20711;-68
2023/02/12 09:41:10;;;;;;;11.37;3.00;;;5.50;99.90;;;;;;4171601;28;20442;-69
2023/02/12 09:43:23;;;;;;;4.20;2.53;;;5.70;99.90;;;;;;4153094;28;20224;-69
2023/02/12 09:45:32;;;;;;;3.30;2.30;;;6.00;99.90;;;;;;4153821;28;20513;-67
2023/02/12 09:47:55;;;;;;;4.17;2.60;;;5.90;99.90;;;;;;4143069;28;20473;-68
2023/02/12 09:50:22;;;;;;;5.33;2.80;;;6.10;99.90;;;;;;4145269;28;20199;-67
2023/02/12 09:52:26;;;;;;;3.93;2.30;;;5.70;99.90;;;;;;4165685;28;20528;-69
2023/02/12 09:54:37;;;;;;;4.80;2.30;;;5.60;99.90;;;;;;4154698;28;20435;-69
2023/02/12 09:56:43;;;;;;;4.00;2.67;;;5.70;99.90;;;;;;4157414;28;20455;-69
2023/02/12 09:58:50;;;;;;;4.00;2.13;;;5.80;99.90;;;;;;4160528;28;20483;-68
2023/02/12 10:00:51;;;;;;;3.83;2.60;;;6.00;99.90;;;;;;4155021;28;20420;-69
2023/02/12 10:02:53;;;;;;;4.50;2.70;;;6.30;99.90;;;;;;4154280;28;20209;-68
2023/02/12 10:04:54;;;;;;;3.23;2.40;;;6.20;99.70;;;;;;4153141;28;20184;-68
2023/02/12 10:07:12;;;;;;;4.30;2.77;;;6.20;99.90;;;;;;4136685;28;20463;-69
2023/02/12 10:09:34;;;;;;;3.43;2.30;;;6.10;99.60;;;;;;4154434;28;21123;-69
2023/02/12 10:12:02;;;;;;;3.40;2.03;;;5.70;99.90;;;;;;4152672;28;20432;-69
2023/02/12 10:14:21;;;;;;;4.70;2.67;;;5.50;99.90;;;;;;4147705;28;20193;-68
2023/02/12 10:16:43;;;;;;;6.43;2.50;;;5.50;99.90;;;;;;4152527;28;20281;-67
2023/02/12 10:19:22;;;;;;;5.60;2.80;;;5.40;99.90;;;;;;4152955;28;20221;-68
2023/02/12 10:22:08;;;;;;;3.67;2.27;;;5.50;99.90;;;;;;4160655;28;20432;-68
2023/02/12 10:24:48;;;;;;;3.87;2.33;;;5.60;99.90;;;;;;4133276;28;20558;-68
2023/02/12 10:26:54;;;;;;;3.60;2.47;;;5.80;99.90;;;;;;4164934;28;20207;-66
2023/02/12 10:29:03;;;;;;;4.03;2.70;;;6.00;99.90;;;;;;4151802;28;20208;-67
2023/02/12 10:31:33;;;;;;;3.80;2.57;;;6.00;99.90;;;;;;4152576;28;20192;-67
2023/02/12 10:33:38;;;;;;;3.13;2.20;;;6.10;99.90;;;;;;4156381;28;20283;-67
2023/02/12 10:35:47;;;;;;;3.70;2.77;;;6.20;99.90;;;;;;4154743;28;20740;-67
2023/02/12 10:38:16;;;;;;;3.70;2.23;;;6.40;99.90;;;;;;4154010;28;20255;-68
2023/02/12 10:40:31;;;;;;;3.80;2.27;;;6.50;99.90;;;;;;4158028;28;20181;-69
2023/02/12 10:42:43;;;;;;;4.70;2.80;;;6.60;99.90;;;;;;4156273;28;20575;-68
2023/02/12 10:44:45;;;;;;;4.93;2.90;;;6.70;99.70;;;;;;4153563;28;20264;-70
2023/02/12 10:46:45;;;;;;;3.80;2.70;;;6.80;98.90;;;;;;4152557;28;20212;-70
2023/02/12 10:48:57;;;;;;;4.23;2.67;;;6.90;98.00;;;;;;4151213;28;20305;-69
2023/02/12 10:51:07;;;;;;;4.53;2.83;;;6.80;97.90;;;;;;4152858;28;20201;-69
2023/02/12 10:53:19;;;;;;;4.50;2.90;;;6.90;98.30;;;;;;4155925;28;20247;-69
2023/02/12 10:55:31;;;;;;;4.93;2.97;;;7.00;98.20;;;;;;4153470;28;20557;-67
2023/02/12 10:57:32;;;;;;;4.93;3.67;;;7.10;97.90;;;;;;4156631;28;20680;-67
2023/02/12 10:59:32;;;;;;;5.53;2.93;;;7.30;97.20;;;;;;4158514;28;20214;-68
2023/02/12 11:01:37;;;;;;;5.20;3.57;;;7.40;96.90;;;;;;4154215;28;20566;-71